sensor_id;sensor_type;location;lat;lon;timestamp;P1;durP1;ratioP1;P2;durP2;ratioP2
62401;SDS011;48440;51.224;22.506;2023-04-24T00:11:27;7.00;;;5.07;;
62401;SDS011;48440;51.224;22.506;2023-04-24T00:17:21;7.80;;;5.05;;
62401;SDS011;48440;51.224;22.506;2023-04-24T00:23:49;6.68;;;4.68;;
62401;SDS011;48440;51.224;22.506;2023-04-24T00:26:23;7.72;;;4.80;;
62401;SDS011;48440;51.224;22.506;2023-04-24T00:28:49;7.80;;;4.72;;
62401;SDS011;48440;51.224;22.506;2023-04-24T00:31:21;6.88;;;4.80;;
62401;SDS011;48440;51.224;22.506;2023-04-24T00:33:47;7.32;;;4.85;;
62401;SDS011;48440;51.224;22.506;2023-04-24T00:36:21;7.47;;;4.80;;
62401;SDS011;48440;51.224;22.506;2023-04-24T00:39:10;8.70;;;4.90;;
62401;SDS011;48440;51.224;22.506;2023-04-24T00:41:36;6.93;;;4.97;;
62401;SDS011;48440;51.224;22.506;2023-04-24T00:44:02;10.25;;;4.88;;
62401;SDS011;48440;51.224;22.506;2023-04-24T00:46:33;7.45;;;4.78;;
62401;SDS011;48440;51.224;22.506;2023-04-24T00:49:01;7.45;;;6.25;;
62401;SDS011;48440;51.224;22.506;2023-04-24T00:51:50;6.30;;;4.63;;
62401;SDS011;48440;51.224;22.506;2023-04-24T00:54:17;9.48;;;5.45;;
62401;SDS011;48440;51.224;22.506;2023-04-24T00:56:43;9.32;;;5.35;;
62401;SDS011;48440;51.224;22.506;2023-04-24T00:59:18;6.97;;;4.45;;
62401;SDS011;48440;51.224;22.506;2023-04-24T01:01:53;6.25;;;4.88;;
62401;SDS011;48440;51.224;22.506;2023-04-24T01:04:19;8.43;;;5.13;;
62401;SDS011;48440;51.224;22.506;2023-04-24T01:06:45;7.65;;;5.00;;
62401;SDS011;48440;51.224;22.506;2023-04-24T01:09:11;7.03;;;4.95;;
62401;SDS011;48440;51.224;22.506;2023-04-24T01:11:40;7.45;;;5.07;;
62401;SDS011;48440;51.224;22.506;2023-04-24T01:14:07;5.97;;;4.97;;
62401;SDS011;48440;51.224;22.506;2023-04-24T01:16:32;9.15;;;5.22;;
62401;SDS011;48440;51.224;22.506;2023-04-24T01:18:59;8.38;;;5.40;;
62401;SDS011;48440;51.224;22.506;2023-04-24T01:21:26;7.75;;;4.72;;
62401;SDS011;48440;51.224;22.506;2023-04-24T01:23:57;8.18;;;5.05;;
62401;SDS011;48440;51.224;22.506;2023-04-24T01:26:23;7.45;;;4.80;;
62401;SDS011;48440;51.224;22.506;2023-04-24T01:28:50;7.70;;;5.03;;
62401;SDS011;48440;51.224;22.506;2023-04-24T01:31:19;7.30;;;4.88;;
62401;SDS011;48440;51.224;22.506;2023-04-24T01:33:49;7.68;;;4.90;;
62401;SDS011;48440;51.224;22.506;2023-04-24T01:36:14;8.38;;;5.00;;
62401;SDS011;48440;51.224;22.506;2023-04-24T01:38:41;9.05;;;4.95;;
62401;SDS011;48440;51.224;22.506;2023-04-24T01:41:10;7.78;;;5.13;;
62401;SDS011;48440;51.224;22.506;2023-04-24T01:43:36;6.70;;;4.88;;
62401;SDS011;48440;51.224;22.506;2023-04-24T01:46:11;6.82;;;4.80;;
62401;SDS011;48440;51.224;22.506;2023-04-24T01:48:38;7.65;;;5.30;;
62401;SDS011;48440;51.224;22.506;2023-04-24T01:51:04;7.35;;;4.80;;
62401;SDS011;48440;51.224;22.506;2023-04-24T01:53:30;6.28;;;4.97;;
62401;SDS011;48440;51.224;22.506;2023-04-24T01:55:56;10.13;;;5.88;;
62401;SDS011;48440;51.224;22.506;2023-04-24T01:58:22;6.50;;;4.55;;
62401;SDS011;48440;51.224;22.506;2023-04-24T02:00:51;8.40;;;5.07;;
62401;SDS011;48440;51.224;22.506;2023-04-24T02:03:17;7.05;;;4.75;;
62401;SDS011;48440;51.224;22.506;2023-04-24T02:05:46;8.48;;;5.22;;
62401;SDS011;48440;51.224;22.506;2023-04-24T02:08:12;6.22;;;4.95;;
62401;SDS011;48440;51.224;22.506;2023-04-24T02:10:37;8.77;;;5.30;;
62401;SDS011;48440;51.224;22.506;2023-04-24T02:13:03;7.85;;;5.10;;
62401;SDS011;48440;51.224;22.506;2023-04-24T02:15:30;6.75;;;5.07;;
62401;SDS011;48440;51.224;22.506;2023-04-24T02:18:21;7.15;;;5.13;;
62401;SDS011;48440;51.224;22.506;2023-04-24T02:20:49;6.07;;;4.85;;
62401;SDS011;48440;51.224;22.506;2023-04-24T02:23:17;8.52;;;5.05;;
62401;SDS011;48440;51.224;22.506;2023-04-24T02:25:43;7.53;;;5.50;;
62401;SDS011;48440;51.224;22.506;2023-04-24T02:28:09;8.52;;;5.35;;
62401;SDS011;48440;51.224;22.506;2023-04-24T02:30:35;6.95;;;4.65;;
62401;SDS011;48440;51.224;22.506;2023-04-24T02:33:03;8.25;;;5.00;;
62401;SDS011;48440;51.224;22.506;2023-04-24T02:35:41;8.18;;;4.93;;
62401;SDS011;48440;51.224;22.506;2023-04-24T02:38:07;6.90;;;5.30;;
62401;SDS011;48440;51.224;22.506;2023-04-24T02:40:33;8.55;;;5.22;;
62401;SDS011;48440;51.224;22.506;2023-04-24T02:42:59;6.82;;;5.03;;
62401;SDS011;48440;51.224;22.506;2023-04-24T02:45:24;7.88;;;5.13;;
62401;SDS011;48440;51.224;22.506;2023-04-24T02:47:50;7.40;;;5.13;;
62401;SDS011;48440;51.224;22.506;2023-04-24T02:50:16;6.70;;;5.00;;
62401;SDS011;48440;51.224;22.506;2023-04-24T02:52:41;7.47;;;4.90;;
62401;SDS011;48440;51.224;22.506;2023-04-24T02:55:07;7.63;;;4.90;;
62401;SDS011;48440;51.224;22.506;2023-04-24T02:57:33;6.28;;;5.35;;
62401;SDS011;48440;51.224;22.506;2023-04-24T03:00:01;7.35;;;5.20;;
62401;SDS011;48440;51.224;22.506;2023-04-24T03:02:40;8.23;;;5.47;;
62401;SDS011;48440;51.224;22.506;2023-04-24T03:05:08;6.97;;;5.13;;
62401;SDS011;48440;51.224;22.506;2023-04-24T03:07:36;10.50;;;5.18;;
62401;SDS011;48440;51.224;22.506;2023-04-24T03:10:03;8.38;;;5.78;;
62401;SDS011;48440;51.224;22.506;2023-04-24T03:12:30;9.63;;;5.43;;
62401;SDS011;48440;51.224;22.506;2023-04-24T03:14:56;7.43;;;5.18;;
62401;SDS011;48440;51.224;22.506;2023-04-24T03:17:22;8.57;;;5.13;;
62401;SDS011;48440;51.224;22.506;2023-04-24T03:19:47;7.93;;;5.18;;
62401;SDS011;48440;51.224;22.506;2023-04-24T03:22:13;7.97;;;5.20;;
62401;SDS011;48440;51.224;22.506;2023-04-24T03:24:39;8.73;;;5.60;;
62401;SDS011;48440;51.224;22.506;2023-04-24T03:27:11;7.50;;;4.80;;
62401;SDS011;48440;51.224;22.506;2023-04-24T03:29:50;8.18;;;5.40;;
62401;SDS011;48440;51.224;22.506;2023-04-24T03:32:25;10.05;;;5.35;;
62401;SDS011;48440;51.224;22.506;2023-04-24T03:34:53;8.68;;;5.03;;
62401;SDS011;48440;51.224;22.506;2023-04-24T03:37:33;7.22;;;5.45;;
62401;SDS011;48440;51.224;22.506;2023-04-24T03:40:15;7.90;;;5.40;;
62401;SDS011;48440;51.224;22.506;2023-04-24T03:42:43;7.93;;;5.55;;
62401;SDS011;48440;51.224;22.506;2023-04-24T03:45:09;7.50;;;5.35;;
62401;SDS011;48440;51.224;22.506;2023-04-24T03:47:41;8.38;;;5.43;;
62401;SDS011;48440;51.224;22.506;2023-04-24T03:50:06;6.90;;;5.38;;
62401;SDS011;48440;51.224;22.506;2023-04-24T03:52:33;7.95;;;5.80;;
62401;SDS011;48440;51.224;22.506;2023-04-24T03:54:58;7.43;;;5.25;;
62401;SDS011;48440;51.224;22.506;2023-04-24T03:57:24;9.93;;;6.85;;
62401;SDS011;48440;51.224;22.506;2023-04-24T03:59:53;9.43;;;5.28;;
62401;SDS011;48440;51.224;22.506;2023-04-24T04:02:19;10.35;;;5.70;;
62401;SDS011;48440;51.224;22.506;2023-04-24T04:04:44;9.60;;;5.80;;
62401;SDS011;48440;51.224;22.506;2023-04-24T04:07:10;12.48;;;6.18;;
62401;SDS011;48440;51.224;22.506;2023-04-24T04:09:36;12.38;;;6.68;;
62401;SDS011;48440;51.224;22.506;2023-04-24T04:12:02;10.82;;;7.15;;
62401;SDS011;48440;51.224;22.506;2023-04-24T04:14:28;8.73;;;6.63;;
62401;SDS011;48440;51.224;22.506;2023-04-24T04:16:54;8.93;;;6.70;;
62401;SDS011;48440;51.224;22.506;2023-04-24T04:19:19;11.95;;;6.60;;
62401;SDS011;48440;51.224;22.506;2023-04-24T04:21:45;11.55;;;6.95;;
62401;SDS011;48440;51.224;22.506;2023-04-24T04:24:15;10.82;;;6.15;;
62401;SDS011;48440;51.224;22.506;2023-04-24T04:26:41;9.15;;;6.43;;
62401;SDS011;48440;51.224;22.506;2023-04-24T04:29:12;7.68;;;5.95;;
62401;SDS011;48440;51.224;22.506;2023-04-24T04:31:38;9.10;;;6.40;;
62401;SDS011;48440;51.224;22.506;2023-04-24T04:34:03;9.00;;;5.85;;
62401;SDS011;48440;51.224;22.506;2023-04-24T04:36:33;9.93;;;6.10;;
62401;SDS011;48440;51.224;22.506;2023-04-24T04:39:02;9.43;;;5.55;;
62401;SDS011;48440;51.224;22.506;2023-04-24T04:41:28;7.70;;;6.20;;
62401;SDS011;48440;51.224;22.506;2023-04-24T04:43:55;11.40;;;6.90;;
62401;SDS011;48440;51.224;22.506;2023-04-24T04:46:23;11.48;;;6.65;;
62401;SDS011;48440;51.224;22.506;2023-04-24T04:48:51;11.38;;;7.00;;
62401;SDS011;48440;51.224;22.506;2023-04-24T04:51:17;9.93;;;5.93;;
62401;SDS011;48440;51.224;22.506;2023-04-24T04:53:43;11.82;;;7.25;;
62401;SDS011;48440;51.224;22.506;2023-04-24T04:56:08;12.32;;;6.68;;
62401;SDS011;48440;51.224;22.506;2023-04-24T04:58:34;10.50;;;6.53;;
62401;SDS011;48440;51.224;22.506;2023-04-24T05:01:00;12.02;;;7.18;;
62401;SDS011;48440;51.224;22.506;2023-04-24T05:03:25;10.05;;;6.45;;
62401;SDS011;48440;51.224;22.506;2023-04-24T05:05:51;10.77;;;6.30;;
62401;SDS011;48440;51.224;22.506;2023-04-24T05:08:17;9.52;;;5.85;;
62401;SDS011;48440;51.224;22.506;2023-04-24T05:10:42;14.93;;;7.60;;
62401;SDS011;48440;51.224;22.506;2023-04-24T05:13:08;12.50;;;6.40;;
62401;SDS011;48440;51.224;22.506;2023-04-24T05:15:38;7.43;;;5.50;;
62401;SDS011;48440;51.224;22.506;2023-04-24T05:21:47;11.35;;;5.80;;
62401;SDS011;48440;51.224;22.506;2023-04-24T05:24:20;10.15;;;6.25;;
62401;SDS011;48440;51.224;22.506;2023-04-24T05:26:46;11.32;;;6.07;;
62401;SDS011;48440;51.224;22.506;2023-04-24T05:29:12;12.80;;;6.03;;
62401;SDS011;48440;51.224;22.506;2023-04-24T05:31:37;11.13;;;5.90;;
62401;SDS011;48440;51.224;22.506;2023-04-24T05:34:04;6.78;;;5.63;;
62401;SDS011;48440;51.224;22.506;2023-04-24T05:36:30;8.57;;;5.68;;
62401;SDS011;48440;51.224;22.506;2023-04-24T05:42:12;10.30;;;5.78;;
62401;SDS011;48440;51.224;22.506;2023-04-24T05:44:44;9.35;;;5.68;;
62401;SDS011;48440;51.224;22.506;2023-04-24T05:47:31;10.02;;;5.53;;
62401;SDS011;48440;51.224;22.506;2023-04-24T05:49:57;8.35;;;5.22;;
62401;SDS011;48440;51.224;22.506;2023-04-24T05:52:23;8.82;;;5.43;;
62401;SDS011;48440;51.224;22.506;2023-04-24T05:54:49;8.93;;;5.43;;
62401;SDS011;48440;51.224;22.506;2023-04-24T05:57:15;9.13;;;5.88;;
62401;SDS011;48440;51.224;22.506;2023-04-24T05:59:40;7.32;;;5.07;;
62401;SDS011;48440;51.224;22.506;2023-04-24T06:02:06;9.85;;;5.80;;
62401;SDS011;48440;51.224;22.506;2023-04-24T06:04:32;9.57;;;5.55;;
62401;SDS011;48440;51.224;22.506;2023-04-24T06:06:58;7.68;;;4.90;;
62401;SDS011;48440;51.224;22.506;2023-04-24T06:09:27;8.27;;;5.60;;
62401;SDS011;48440;51.224;22.506;2023-04-24T06:12:07;13.07;;;5.55;;
62401;SDS011;48440;51.224;22.506;2023-04-24T06:14:33;8.88;;;5.13;;
62401;SDS011;48440;51.224;22.506;2023-04-24T06:16:59;6.88;;;5.22;;
62401;SDS011;48440;51.224;22.506;2023-04-24T06:19:26;10.68;;;5.20;;
62401;SDS011;48440;51.224;22.506;2023-04-24T06:21:51;7.75;;;5.60;;
62401;SDS011;48440;51.224;22.506;2023-04-24T06:24:17;8.57;;;5.43;;
62401;SDS011;48440;51.224;22.506;2023-04-24T06:26:43;6.70;;;4.90;;
62401;SDS011;48440;51.224;22.506;2023-04-24T06:29:08;8.05;;;5.55;;
62401;SDS011;48440;51.224;22.506;2023-04-24T06:31:34;8.93;;;5.20;;
62401;SDS011;48440;51.224;22.506;2023-04-24T06:34:02;9.00;;;5.43;;
62401;SDS011;48440;51.224;22.506;2023-04-24T06:36:28;8.73;;;4.95;;
62401;SDS011;48440;51.224;22.506;2023-04-24T06:38:54;7.05;;;5.13;;
62401;SDS011;48440;51.224;22.506;2023-04-24T06:41:20;6.85;;;5.57;;
62401;SDS011;48440;51.224;22.506;2023-04-24T06:43:48;7.80;;;5.40;;
62401;SDS011;48440;51.224;22.506;2023-04-24T06:46:14;7.53;;;5.30;;
62401;SDS011;48440;51.224;22.506;2023-04-24T06:48:40;7.88;;;4.97;;
62401;SDS011;48440;51.224;22.506;2023-04-24T06:51:06;6.80;;;5.30;;
62401;SDS011;48440;51.224;22.506;2023-04-24T06:53:31;6.75;;;4.88;;
62401;SDS011;48440;51.224;22.506;2023-04-24T06:55:58;6.82;;;5.45;;
62401;SDS011;48440;51.224;22.506;2023-04-24T06:58:24;10.30;;;5.30;;
62401;SDS011;48440;51.224;22.506;2023-04-24T07:00:50;8.60;;;5.13;;
62401;SDS011;48440;51.224;22.506;2023-04-24T07:03:15;7.03;;;5.22;;
62401;SDS011;48440;51.224;22.506;2023-04-24T07:05:41;7.97;;;5.57;;
62401;SDS011;48440;51.224;22.506;2023-04-24T07:08:07;5.95;;;5.22;;
62401;SDS011;48440;51.224;22.506;2023-04-24T07:10:33;7.45;;;5.35;;
62401;SDS011;48440;51.224;22.506;2023-04-24T07:12:59;7.38;;;5.20;;
62401;SDS011;48440;51.224;22.506;2023-04-24T07:15:24;10.18;;;5.05;;
62401;SDS011;48440;51.224;22.506;2023-04-24T07:17:50;7.47;;;5.10;;
62401;SDS011;48440;51.224;22.506;2023-04-24T07:20:15;7.80;;;5.38;;
62401;SDS011;48440;51.224;22.506;2023-04-24T07:22:41;8.23;;;5.40;;
62401;SDS011;48440;51.224;22.506;2023-04-24T07:25:06;7.03;;;5.15;;
62401;SDS011;48440;51.224;22.506;2023-04-24T07:27:32;7.63;;;5.10;;
62401;SDS011;48440;51.224;22.506;2023-04-24T07:29:58;9.00;;;5.13;;
62401;SDS011;48440;51.224;22.506;2023-04-24T07:32:24;6.90;;;5.38;;
62401;SDS011;48440;51.224;22.506;2023-04-24T07:34:50;7.13;;;5.35;;
62401;SDS011;48440;51.224;22.506;2023-04-24T07:37:15;7.65;;;5.10;;
62401;SDS011;48440;51.224;22.506;2023-04-24T07:39:41;7.25;;;5.07;;
62401;SDS011;48440;51.224;22.506;2023-04-24T07:42:06;6.57;;;5.22;;
62401;SDS011;48440;51.224;22.506;2023-04-24T07:44:32;7.40;;;5.18;;
62401;SDS011;48440;51.224;22.506;2023-04-24T07:46:57;7.28;;;5.18;;
62401;SDS011;48440;51.224;22.506;2023-04-24T07:49:23;6.63;;;5.55;;
62401;SDS011;48440;51.224;22.506;2023-04-24T07:51:49;7.55;;;5.05;;
62401;SDS011;48440;51.224;22.506;2023-04-24T07:54:14;8.52;;;4.82;;
62401;SDS011;48440;51.224;22.506;2023-04-24T07:56:43;9.00;;;5.35;;
62401;SDS011;48440;51.224;22.506;2023-04-24T07:59:09;7.82;;;4.95;;
62401;SDS011;48440;51.224;22.506;2023-04-24T08:01:35;6.30;;;5.10;;
62401;SDS011;48440;51.224;22.506;2023-04-24T08:04:01;9.18;;;5.68;;
62401;SDS011;48440;51.224;22.506;2023-04-24T08:06:26;7.15;;;5.63;;
62401;SDS011;48440;51.224;22.506;2023-04-24T08:08:57;6.95;;;5.03;;
62401;SDS011;48440;51.224;22.506;2023-04-24T08:11:23;9.63;;;5.18;;
62401;SDS011;48440;51.224;22.506;2023-04-24T08:13:49;7.20;;;5.07;;
62401;SDS011;48440;51.224;22.506;2023-04-24T08:16:14;7.45;;;5.03;;
62401;SDS011;48440;51.224;22.506;2023-04-24T08:18:40;7.28;;;4.70;;
62401;SDS011;48440;51.224;22.506;2023-04-24T08:21:06;5.88;;;4.85;;
62401;SDS011;48440;51.224;22.506;2023-04-24T08:23:31;5.55;;;4.72;;
62401;SDS011;48440;51.224;22.506;2023-04-24T08:25:57;7.43;;;4.60;;
62401;SDS011;48440;51.224;22.506;2023-04-24T08:28:22;7.43;;;4.60;;
62401;SDS011;48440;51.224;22.506;2023-04-24T08:30:48;10.70;;;4.57;;
62401;SDS011;48440;51.224;22.506;2023-04-24T08:33:19;7.78;;;5.07;;
62401;SDS011;48440;51.224;22.506;2023-04-24T08:35:48;6.28;;;4.60;;
62401;SDS011;48440;51.224;22.506;2023-04-24T08:38:13;9.73;;;5.40;;
62401;SDS011;48440;51.224;22.506;2023-04-24T08:40:40;44.22;;;19.63;;
62401;SDS011;48440;51.224;22.506;2023-04-24T08:43:06;89.55;;;39.63;;
62401;SDS011;48440;51.224;22.506;2023-04-24T08:45:32;41.45;;;20.95;;
62401;SDS011;48440;51.224;22.506;2023-04-24T08:47:58;11.02;;;6.38;;
62401;SDS011;48440;51.224;22.506;2023-04-24T08:50:25;8.30;;;5.45;;
62401;SDS011;48440;51.224;22.506;2023-04-24T08:52:56;6.70;;;5.22;;
62401;SDS011;48440;51.224;22.506;2023-04-24T08:55:24;7.45;;;4.65;;
62401;SDS011;48440;51.224;22.506;2023-04-24T08:57:50;7.68;;;4.30;;
62401;SDS011;48440;51.224;22.506;2023-04-24T09:00:18;9.00;;;4.80;;
62401;SDS011;48440;51.224;22.506;2023-04-24T09:02:45;6.20;;;4.95;;
62401;SDS011;48440;51.224;22.506;2023-04-24T09:05:13;7.10;;;4.90;;
62401;SDS011;48440;51.224;22.506;2023-04-24T09:07:41;8.18;;;4.57;;
62401;SDS011;48440;51.224;22.506;2023-04-24T09:10:09;8.02;;;4.72;;
62401;SDS011;48440;51.224;22.506;2023-04-24T09:12:36;7.85;;;4.75;;
62401;SDS011;48440;51.224;22.506;2023-04-24T09:15:02;8.27;;;4.50;;
62401;SDS011;48440;51.224;22.506;2023-04-24T09:17:30;6.63;;;4.63;;
62401;SDS011;48440;51.224;22.506;2023-04-24T09:19:57;6.47;;;4.93;;
62401;SDS011;48440;51.224;22.506;2023-04-24T09:22:22;9.48;;;4.20;;
62401;SDS011;48440;51.224;22.506;2023-04-24T09:24:48;9.70;;;5.00;;
62401;SDS011;48440;51.224;22.506;2023-04-24T09:27:27;6.60;;;5.05;;
62401;SDS011;48440;51.224;22.506;2023-04-24T09:29:54;7.40;;;4.65;;
62401;SDS011;48440;51.224;22.506;2023-04-24T09:32:23;7.97;;;5.00;;
62401;SDS011;48440;51.224;22.506;2023-04-24T09:37:41;6.78;;;4.60;;
62401;SDS011;48440;51.224;22.506;2023-04-24T09:42:33;6.38;;;4.80;;
62401;SDS011;48440;51.224;22.506;2023-04-24T09:44:58;8.90;;;4.45;;
62401;SDS011;48440;51.224;22.506;2023-04-24T09:47:24;7.13;;;4.35;;
62401;SDS011;48440;51.224;22.506;2023-04-24T09:49:49;6.43;;;4.30;;
62401;SDS011;48440;51.224;22.506;2023-04-24T09:52:15;5.55;;;4.20;;
62401;SDS011;48440;51.224;22.506;2023-04-24T09:54:40;7.35;;;4.38;;
62401;SDS011;48440;51.224;22.506;2023-04-24T09:57:09;6.60;;;4.38;;
62401;SDS011;48440;51.224;22.506;2023-04-24T09:59:34;5.65;;;4.22;;
62401;SDS011;48440;51.224;22.506;2023-04-24T10:02:00;6.68;;;4.38;;
62401;SDS011;48440;51.224;22.506;2023-04-24T10:04:26;6.88;;;4.20;;
62401;SDS011;48440;51.224;22.506;2023-04-24T10:06:54;7.05;;;4.20;;
62401;SDS011;48440;51.224;22.506;2023-04-24T10:09:25;8.63;;;4.50;;
62401;SDS011;48440;51.224;22.506;2023-04-24T10:11:52;6.45;;;4.40;;
62401;SDS011;48440;51.224;22.506;2023-04-24T10:14:27;7.53;;;4.80;;
62401;SDS011;48440;51.224;22.506;2023-04-24T10:16:54;8.27;;;4.00;;
62401;SDS011;48440;51.224;22.506;2023-04-24T10:19:22;5.63;;;4.13;;
62401;SDS011;48440;51.224;22.506;2023-04-24T10:21:51;6.95;;;4.18;;
62401;SDS011;48440;51.224;22.506;2023-04-24T10:24:18;7.30;;;4.05;;
62401;SDS011;48440;51.224;22.506;2023-04-24T10:26:46;6.90;;;4.40;;
62401;SDS011;48440;51.224;22.506;2023-04-24T10:29:14;4.90;;;4.25;;
62401;SDS011;48440;51.224;22.506;2023-04-24T10:31:40;6.35;;;4.22;;
62401;SDS011;48440;51.224;22.506;2023-04-24T10:34:07;5.80;;;4.00;;
62401;SDS011;48440;51.224;22.506;2023-04-24T10:36:34;8.25;;;4.50;;
62401;SDS011;48440;51.224;22.506;2023-04-24T10:39:02;7.80;;;4.40;;
62401;SDS011;48440;51.224;22.506;2023-04-24T10:41:31;8.95;;;4.32;;
62401;SDS011;48440;51.224;22.506;2023-04-24T10:44:07;5.03;;;4.07;;
62401;SDS011;48440;51.224;22.506;2023-04-24T10:46:38;5.97;;;4.15;;
62401;SDS011;48440;51.224;22.506;2023-04-24T10:49:07;5.00;;;4.20;;
62401;SDS011;48440;51.224;22.506;2023-04-24T10:54:44;5.90;;;4.25;;
62401;SDS011;48440;51.224;22.506;2023-04-24T10:59:48;7.45;;;4.53;;
62401;SDS011;48440;51.224;22.506;2023-04-24T11:02:15;5.88;;;4.20;;
62401;SDS011;48440;51.224;22.506;2023-04-24T11:04:42;6.20;;;4.57;;
62401;SDS011;48440;51.224;22.506;2023-04-24T11:07:11;5.38;;;4.15;;
62401;SDS011;48440;51.224;22.506;2023-04-24T11:09:37;6.15;;;4.20;;
62401;SDS011;48440;51.224;22.506;2023-04-24T11:12:08;5.60;;;4.28;;
62401;SDS011;48440;51.224;22.506;2023-04-24T11:20:17;7.60;;;4.40;;
62401;SDS011;48440;51.224;22.506;2023-04-24T11:22:43;7.38;;;4.45;;
62401;SDS011;48440;51.224;22.506;2023-04-24T11:25:08;4.93;;;4.07;;
62401;SDS011;48440;51.224;22.506;2023-04-24T11:27:43;8.10;;;4.18;;
62401;SDS011;48440;51.224;22.506;2023-04-24T11:30:16;4.85;;;4.20;;
62401;SDS011;48440;51.224;22.506;2023-04-24T11:32:43;6.80;;;4.80;;
62401;SDS011;48440;51.224;22.506;2023-04-24T11:35:12;9.23;;;4.75;;
62401;SDS011;48440;51.224;22.506;2023-04-24T11:37:53;5.93;;;4.43;;
62401;SDS011;48440;51.224;22.506;2023-04-24T11:40:20;7.68;;;4.30;;
62401;SDS011;48440;51.224;22.506;2023-04-24T11:42:51;4.95;;;4.45;;
62401;SDS011;48440;51.224;22.506;2023-04-24T11:45:27;6.90;;;4.00;;
62401;SDS011;48440;51.224;22.506;2023-04-24T11:47:53;6.22;;;4.22;;
62401;SDS011;48440;51.224;22.506;2023-04-24T11:50:20;6.95;;;3.90;;
62401;SDS011;48440;51.224;22.506;2023-04-24T11:52:48;5.25;;;4.38;;
62401;SDS011;48440;51.224;22.506;2023-04-24T11:57:47;4.43;;;3.55;;
62401;SDS011;48440;51.224;22.506;2023-04-24T12:00:17;8.63;;;4.32;;
62401;SDS011;48440;51.224;22.506;2023-04-24T12:02:48;6.28;;;3.80;;
62401;SDS011;48440;51.224;22.506;2023-04-24T12:05:34;5.80;;;4.65;;
62401;SDS011;48440;51.224;22.506;2023-04-24T12:08:00;6.95;;;4.38;;
62401;SDS011;48440;51.224;22.506;2023-04-24T12:10:26;7.65;;;4.00;;
62401;SDS011;48440;51.224;22.506;2023-04-24T12:12:53;7.88;;;3.88;;
62401;SDS011;48440;51.224;22.506;2023-04-24T12:15:21;6.38;;;4.22;;
62401;SDS011;48440;51.224;22.506;2023-04-24T12:17:47;6.50;;;4.28;;
62401;SDS011;48440;51.224;22.506;2023-04-24T12:20:16;4.97;;;4.13;;
62401;SDS011;48440;51.224;22.506;2023-04-24T12:22:45;5.50;;;3.78;;
62401;SDS011;48440;51.224;22.506;2023-04-24T12:25:12;5.93;;;3.88;;
62401;SDS011;48440;51.224;22.506;2023-04-24T12:27:39;6.78;;;3.95;;
62401;SDS011;48440;51.224;22.506;2023-04-24T12:30:05;5.90;;;3.60;;
62401;SDS011;48440;51.224;22.506;2023-04-24T12:32:35;5.93;;;3.40;;
62401;SDS011;48440;51.224;22.506;2023-04-24T12:35:05;5.03;;;3.83;;
62401;SDS011;48440;51.224;22.506;2023-04-24T12:37:32;7.03;;;3.58;;
62401;SDS011;48440;51.224;22.506;2023-04-24T12:40:09;6.43;;;3.85;;
62401;SDS011;48440;51.224;22.506;2023-04-24T12:42:36;5.55;;;3.72;;
62401;SDS011;48440;51.224;22.506;2023-04-24T12:45:08;5.38;;;3.75;;
62401;SDS011;48440;51.224;22.506;2023-04-24T12:47:37;5.07;;;3.40;;
62401;SDS011;48440;51.224;22.506;2023-04-24T12:50:03;7.45;;;4.10;;
62401;SDS011;48440;51.224;22.506;2023-04-24T12:52:29;6.50;;;3.80;;
62401;SDS011;48440;51.224;22.506;2023-04-24T12:54:56;4.60;;;3.65;;
62401;SDS011;48440;51.224;22.506;2023-04-24T12:57:24;4.93;;;4.00;;
62401;SDS011;48440;51.224;22.506;2023-04-24T12:59:52;5.68;;;3.75;;
62401;SDS011;48440;51.224;22.506;2023-04-24T13:02:19;11.68;;;4.03;;
62401;SDS011;48440;51.224;22.506;2023-04-24T13:04:46;6.93;;;4.40;;
62401;SDS011;48440;51.224;22.506;2023-04-24T13:07:15;7.57;;;4.20;;
62401;SDS011;48440;51.224;22.506;2023-04-24T13:09:44;8.48;;;4.50;;
62401;SDS011;48440;51.224;22.506;2023-04-24T13:12:11;7.47;;;3.72;;
62401;SDS011;48440;51.224;22.506;2023-04-24T13:14:37;5.47;;;3.72;;
62401;SDS011;48440;51.224;22.506;2023-04-24T13:17:03;5.68;;;3.70;;
62401;SDS011;48440;51.224;22.506;2023-04-24T13:19:29;5.18;;;3.60;;
62401;SDS011;48440;51.224;22.506;2023-04-24T13:22:00;5.60;;;3.72;;
62401;SDS011;48440;51.224;22.506;2023-04-24T13:24:25;7.25;;;3.60;;
62401;SDS011;48440;51.224;22.506;2023-04-24T13:26:52;6.88;;;4.10;;
62401;SDS011;48440;51.224;22.506;2023-04-24T13:29:17;6.30;;;3.50;;
62401;SDS011;48440;51.224;22.506;2023-04-24T13:31:43;6.20;;;3.60;;
62401;SDS011;48440;51.224;22.506;2023-04-24T13:34:08;5.97;;;3.60;;
62401;SDS011;48440;51.224;22.506;2023-04-24T13:36:34;4.47;;;3.60;;
62401;SDS011;48440;51.224;22.506;2023-04-24T13:39:00;7.25;;;3.75;;
62401;SDS011;48440;51.224;22.506;2023-04-24T13:41:26;4.47;;;3.25;;
62401;SDS011;48440;51.224;22.506;2023-04-24T13:43:51;4.50;;;3.70;;
62401;SDS011;48440;51.224;22.506;2023-04-24T13:46:16;6.40;;;3.70;;
62401;SDS011;48440;51.224;22.506;2023-04-24T13:48:42;4.35;;;3.65;;
62401;SDS011;48440;51.224;22.506;2023-04-24T13:51:07;4.57;;;3.70;;
62401;SDS011;48440;51.224;22.506;2023-04-24T13:53:33;5.47;;;3.42;;
62401;SDS011;48440;51.224;22.506;2023-04-24T13:56:01;6.35;;;3.92;;
62401;SDS011;48440;51.224;22.506;2023-04-24T13:58:27;9.13;;;4.28;;
62401;SDS011;48440;51.224;22.506;2023-04-24T14:00:52;6.50;;;3.95;;
62401;SDS011;48440;51.224;22.506;2023-04-24T14:03:18;7.18;;;4.15;;
62401;SDS011;48440;51.224;22.506;2023-04-24T14:05:43;5.55;;;4.13;;
62401;SDS011;48440;51.224;22.506;2023-04-24T14:08:08;6.78;;;4.20;;
62401;SDS011;48440;51.224;22.506;2023-04-24T14:10:34;4.88;;;4.15;;
62401;SDS011;48440;51.224;22.506;2023-04-24T14:13:00;8.98;;;4.80;;
62401;SDS011;48440;51.224;22.506;2023-04-24T14:15:25;6.30;;;4.57;;
62401;SDS011;48440;51.224;22.506;2023-04-24T14:17:51;7.13;;;4.25;;
62401;SDS011;48440;51.224;22.506;2023-04-24T14:20:17;7.28;;;4.40;;
62401;SDS011;48440;51.224;22.506;2023-04-24T14:22:42;6.53;;;4.47;;
62401;SDS011;48440;51.224;22.506;2023-04-24T14:25:08;4.70;;;4.18;;
62401;SDS011;48440;51.224;22.506;2023-04-24T14:27:33;8.02;;;4.38;;
62401;SDS011;48440;51.224;22.506;2023-04-24T14:29:59;6.60;;;3.92;;
62401;SDS011;48440;51.224;22.506;2023-04-24T14:32:25;6.55;;;4.38;;
62401;SDS011;48440;51.224;22.506;2023-04-24T14:34:50;6.97;;;3.88;;
62401;SDS011;48440;51.224;22.506;2023-04-24T14:37:16;8.25;;;4.13;;
62401;SDS011;48440;51.224;22.506;2023-04-24T14:39:41;7.50;;;4.35;;
62401;SDS011;48440;51.224;22.506;2023-04-24T14:42:07;5.32;;;3.70;;
62401;SDS011;48440;51.224;22.506;2023-04-24T14:44:32;6.22;;;3.65;;
62401;SDS011;48440;51.224;22.506;2023-04-24T14:46:58;5.57;;;4.07;;
62401;SDS011;48440;51.224;22.506;2023-04-24T14:49:25;7.25;;;4.13;;
62401;SDS011;48440;51.224;22.506;2023-04-24T14:51:50;9.30;;;4.28;;
62401;SDS011;48440;51.224;22.506;2023-04-24T14:54:16;5.72;;;4.05;;
62401;SDS011;48440;51.224;22.506;2023-04-24T14:56:42;5.07;;;3.88;;
62401;SDS011;48440;51.224;22.506;2023-04-24T14:59:09;7.85;;;4.07;;
62401;SDS011;48440;51.224;22.506;2023-04-24T15:01:35;7.07;;;4.00;;
62401;SDS011;48440;51.224;22.506;2023-04-24T15:04:01;6.45;;;4.13;;
62401;SDS011;48440;51.224;22.506;2023-04-24T15:06:26;7.82;;;4.30;;
62401;SDS011;48440;51.224;22.506;2023-04-24T15:08:52;6.22;;;5.00;;
62401;SDS011;48440;51.224;22.506;2023-04-24T15:11:17;6.35;;;4.32;;
62401;SDS011;48440;51.224;22.506;2023-04-24T15:13:43;10.70;;;4.72;;
62401;SDS011;48440;51.224;22.506;2023-04-24T15:16:11;6.93;;;3.97;;
62401;SDS011;48440;51.224;22.506;2023-04-24T15:18:37;7.03;;;4.05;;